Time;durP1;ratioP1;P1;durP2;ratioP2;P2;SDS_P1;SDS_P2;PMS_P1;PMS_P2;Temp;Humidity;BMP_temperature;BMP_pressure;BME280_temperature;BME280_humidity;BME280_pressure;Samples;Min_cycle;Max_cycle;Signal;HPM_P1;HPM_P2
2023/03/18 00:00:17;;;;;;;17.40;13.10;;;;;;;8.81;61.82;102158.77;106775;1271;25231;-51
2023/03/18 00:02:47;;;;;;;21.70;14.20;;;;;;;8.82;61.96;102151.86;106106;1269;1003696;-48
2023/03/18 00:05:17;;;;;;;18.70;13.30;;;;;;;8.82;62.17;102151.86;107138;1268;25450;-48
2023/03/18 00:07:46;;;;;;;22.20;15.50;;;;;;;8.82;62.17;102147.70;106808;1269;25354;-48
2023/03/18 00:10:15;;;;;;;18.80;13.70;;;;;;;8.82;62.15;102148.92;107037;1268;25320;-50
2023/03/18 00:12:45;;;;;;;18.90;13.00;;;;;;;8.81;62.36;102146.83;107029;1269;25351;-50
2023/03/18 00:15:15;;;;;;;21.70;13.20;;;;;;;8.80;62.37;102145.08;106906;1269;25336;-50
2023/03/18 00:17:45;;;;;;;21.10;13.90;;;;;;;8.79;62.45;102144.05;107031;1268;25348;-50
2023/03/18 00:20:15;;;;;;;24.10;14.10;;;;;;;8.79;62.86;102143.70;106942;1268;25514;-50
2023/03/18 00:22:45;;;;;;;21.00;14.70;;;;;;;8.79;62.79;102145.60;107046;1268;25295;-49
2023/03/18 00:25:14;;;;;;;20.70;14.10;;;;;;;8.77;62.75;102147.67;107147;1268;25092;-50
2023/03/18 00:27:43;;;;;;;22.80;14.60;;;;;;;8.76;62.93;102147.48;107128;1268;22532;-50
2023/03/18 00:30:12;;;;;;;20.00;13.60;;;;;;;8.76;62.99;102146.27;106976;1269;22551;-50
2023/03/18 00:32:41;;;;;;;23.50;14.00;;;;;;;8.76;62.95;102146.63;106990;1268;23127;-50
2023/03/18 00:35:11;;;;;;;20.00;13.60;;;;;;;8.74;63.03;102147.81;106806;1269;25047;-50
2023/03/18 00:37:41;;;;;;;22.30;14.50;;;;;;;8.70;63.32;102145.52;106764;1269;22527;-50
2023/03/18 00:40:16;;;;;;;24.70;15.00;;;;;;;8.67;63.56;102144.30;106925;1268;25348;-50
2023/03/18 00:42:56;;;;;;;21.90;14.00;;;;;;;8.67;63.41;102140.48;107046;1269;24276;-50
2023/03/18 00:45:24;;;;;;;20.60;13.70;;;;;;;8.64;63.54;102141.51;106767;1268;22615;-50
2023/03/18 00:47:56;;;;;;;21.60;14.00;;;;;;;8.65;63.77;102137.55;106322;1268;1002875;-50
2023/03/18 00:50:24;;;;;;;20.00;13.40;;;;;;;8.62;63.84;102137.34;107008;1271;24199;-50
2023/03/18 00:52:53;;;;;;;20.50;13.40;;;;;;;8.61;64.16;102139.05;106938;1268;25416;-50
2023/03/18 00:55:22;;;;;;;22.00;13.90;;;;;;;8.60;64.07;102136.62;106996;1269;22587;-49
2023/03/18 00:57:51;;;;;;;21.60;14.30;;;;;;;8.61;64.10;102134.38;106895;1268;25419;-49
2023/03/18 01:00:20;;;;;;;22.50;14.50;;;;;;;8.62;64.26;102134.56;107010;1269;25336;-50
2023/03/18 01:02:49;;;;;;;21.60;13.40;;;;;;;8.62;64.38;102133.18;107003;1269;24264;-49
2023/03/18 01:05:18;;;;;;;28.40;14.30;;;;;;;8.63;64.31;102133.19;107030;1268;25487;-48
2023/03/18 01:07:46;;;;;;;19.30;12.80;;;;;;;8.62;64.47;102128.16;107032;1268;25435;-49
2023/03/18 01:10:18;;;;;;;24.00;15.00;;;;;;;8.63;64.65;102128.19;107066;1268;25316;-49
2023/03/18 01:12:47;;;;;;;21.80;13.20;;;;;;;8.63;64.63;102129.90;106860;1268;24414;-49
2023/03/18 01:15:17;;;;;;;22.10;14.20;;;;;;;8.64;64.79;102127.66;106875;1268;25258;-51
2023/03/18 01:17:47;;;;;;;;;;;;;;;8.65;64.84;102130.96;106796;1269;25305;-50
2023/03/18 01:20:17;;;;;;;26.00;14.30;;;;;;;8.65;64.79;102130.61;106834;1253;24230;-49
2023/03/18 01:22:46;;;;;;;19.50;13.40;;;;;;;8.63;65.08;102130.09;106905;1268;22519;-49
2023/03/18 01:25:15;;;;;;;26.20;14.50;;;;;;;8.62;65.26;102133.38;107045;1268;25335;-49
2023/03/18 01:27:45;;;;;;;19.70;13.40;;;;;;;8.61;65.48;102133.01;106800;1268;22618;-49
2023/03/18 01:30:14;;;;;;;21.20;13.50;;;;;;;8.60;65.76;102131.95;107024;1269;22531;-49
2023/03/18 01:32:47;;;;;;;22.20;13.40;;;;;;;8.59;65.91;102126.59;106911;1269;25404;-49
2023/03/18 01:35:16;;;;;;;21.80;12.30;;;;;;;8.60;66.09;102129.70;106131;1268;1003140;-49
2023/03/18 01:37:47;;;;;;;23.20;14.20;;;;;;;8.60;66.34;102127.80;107035;1268;25341;-51
2023/03/18 01:40:15;;;;;;;22.40;14.90;;;;;;;8.60;66.54;102124.69;106298;1268;1002873;-49
2023/03/18 01:42:48;;;;;;;23.40;13.30;;;;;;;8.60;66.83;102115.70;106855;1269;25360;-49
2023/03/18 01:45:22;;;;;;;21.20;13.70;;;;;;;8.61;66.90;102118.48;106916;1268;22526;-50
2023/03/18 01:47:52;;;;;;;22.40;13.80;;;;;;;8.60;66.96;102121.75;107060;1268;25318;-50
2023/03/18 01:50:23;;;;;;;19.90;13.60;;;;;;;8.60;67.13;102123.13;106961;1268;23863;-50
2023/03/18 01:52:58;;;;;;;21.30;14.60;;;;;;;8.59;67.24;102116.05;106680;1268;25357;-51
2023/03/18 01:55:28;;;;;;;22.10;13.40;;;;;;;8.57;67.29;102124.33;106319;1268;1002631;-50
2023/03/18 01:57:58;;;;;;;21.70;14.00;;;;;;;8.57;67.58;102121.39;106820;1268;25367;-51
2023/03/18 02:00:27;;;;;;;20.50;13.10;;;;;;;8.58;67.74;102123.30;106833;1274;23876;-51
2023/03/18 02:02:57;;;;;;;21.10;14.10;;;;;;;8.61;68.03;102118.98;107177;1268;24206;-50
2023/03/18 02:05:26;;;;;;;25.40;15.30;;;;;;;8.61;68.05;102121.08;106860;1258;23151;-50
2023/03/18 02:07:55;;;;;;;18.40;13.30;;;;;;;8.60;68.06;102118.64;107082;1268;22527;-50
2023/03/18 02:10:25;;;;;;;20.90;14.30;;;;;;;8.61;68.17;102122.45;107070;1268;22644;-51
2023/03/18 02:13:00;;;;;;;;;;;;;;;8.60;68.14;102119.33;106925;1269;22511;-50
2023/03/18 02:15:36;;;;;;;19.60;13.00;;;;;;;8.60;68.42;102118.47;107011;1268;24349;-50
2023/03/18 02:18:26;;;;;;;19.70;13.90;;;;;;;8.61;68.54;102118.30;106713;1269;25344;-49
2023/03/18 02:21:07;;;;;;;22.60;14.00;;;;;;;8.63;68.51;102113.30;106985;1252;23868;-50
2023/03/18 02:24:02;;;;;;;20.30;13.50;;;;;;;8.65;68.73;102118.16;106845;1268;26686;-49
2023/03/18 02:26:42;;;;;;;21.20;14.00;;;;;;;8.66;68.80;102122.67;106532;1271;24475;-49
2023/03/18 02:29:18;;;;;;;20.40;13.70;;;;;;;8.67;68.78;102123.70;106381;1271;25404;-51
2023/03/18 02:31:54;;;;;;;25.10;14.80;;;;;;;8.68;68.70;102124.07;106736;1268;25339;-52
2023/03/18 02:34:23;;;;;;;20.60;13.40;;;;;;;8.67;68.77;102126.84;106922;1269;25291;-51
2023/03/18 02:36:53;;;;;;;23.10;15.10;;;;;;;8.67;68.95;102128.39;106690;1271;22625;-50
2023/03/18 02:39:22;;;;;;;22.10;13.80;;;;;;;8.69;69.02;102128.58;106916;1268;24311;-50
2023/03/18 02:41:52;;;;;;;22.20;13.80;;;;;;;8.69;69.14;102122.70;107093;1268;22537;-50
2023/03/18 02:44:21;;;;;;;20.80;14.10;;;;;;;8.70;69.07;102124.43;106342;1268;1003514;-50
2023/03/18 02:47:15;;;;;;;21.10;14.10;;;;;;;8.71;69.34;102124.61;106891;1268;25578;-51
2023/03/18 02:49:43;;;;;;;22.90;14.90;;;;;;;8.73;69.24;102121.51;106916;1272;25574;-51
2023/03/18 02:52:12;;;;;;;23.50;14.80;;;;;;;8.73;69.34;102122.55;107071;1268;25339;-51
2023/03/18 02:54:44;;;;;;;22.00;14.90;;;;;;;8.74;69.38;102120.98;107019;1268;25543;-49
2023/03/18 02:57:13;;;;;;;21.20;14.70;;;;;;;8.77;69.27;102124.30;107066;1268;25431;-51
2023/03/18 02:59:43;;;;;;;26.50;16.10;;;;;;;8.79;69.18;102125.54;106776;1274;25339;-50
2023/03/18 03:02:12;;;;;;;25.60;16.20;;;;;;;8.79;69.24;102128.30;106832;1268;23898;-50
2023/03/18 03:04:42;;;;;;;23.40;14.90;;;;;;;8.80;69.30;102126.39;107012;1268;22647;-50
2023/03/18 03:07:11;;;;;;;24.10;15.30;;;;;;;8.82;69.23;102124.70;107072;1268;25351;-50
2023/03/18 03:09:51;;;;;;;25.00;16.10;;;;;;;8.83;69.33;102121.25;106992;1272;25373;-50
2023/03/18 03:12:20;;;;;;;25.90;17.30;;;;;;;8.83;69.28;102118.66;106873;1268;25378;-51
2023/03/18 03:14:51;;;;;;;27.00;16.40;;;;;;;8.83;69.36;102119.16;106829;1268;22630;-51
2023/03/18 03:17:20;;;;;;;28.80;16.70;;;;;;;8.83;69.53;102113.80;106891;1270;25406;-51
2023/03/18 03:19:53;;;;;;;27.20;17.10;;;;;;;8.85;69.57;102117.45;106789;1274;25520;-51
2023/03/18 03:22:21;;;;;;;27.70;16.80;;;;;;;8.86;69.54;102117.29;107031;1253;25318;-51
2023/03/18 03:24:50;;;;;;;28.40;17.30;;;;;;;8.87;69.38;102118.50;107053;1268;22664;-50
2023/03/18 03:27:18;;;;;;;27.70;16.90;;;;;;;8.88;69.49;102119.55;107079;1268;22654;-51
2023/03/18 03:29:47;;;;;;;30.50;17.60;;;;;;;8.88;69.49;102117.99;106847;1271;25529;-50
2023/03/18 03:32:16;;;;;;;29.40;17.20;;;;;;;8.87;69.51;102120.23;106962;1268;25366;-50
2023/03/18 03:34:48;;;;;;;29.00;18.40;;;;;;;8.87;69.49;102118.52;106909;1269;25339;-51
2023/03/18 03:37:16;;;;;;;28.20;18.10;;;;;;;8.89;69.51;102117.30;107098;1271;25305;-50
2023/03/18 03:39:48;;;;;;;31.00;17.90;;;;;;;8.90;69.50;102115.23;107074;1269;25338;-49
2023/03/18 03:42:18;;;;;;;29.90;18.70;;;;;;;8.91;69.54;102116.80;107059;1271;25250;-50
2023/03/18 03:44:49;;;;;;;28.60;17.10;;;;;;;8.91;69.56;102120.45;107006;1268;26625;-50
2023/03/18 03:47:18;;;;;;;28.80;18.30;;;;;;;8.93;69.56;102116.30;106285;1271;1003811;-49
2023/03/18 03:49:47;;;;;;;31.30;18.80;;;;;;;8.94;69.69;102116.99;107037;1268;25443;-51
2023/03/18 03:52:17;;;;;;;29.10;18.60;;;;;;;8.94;69.59;102115.61;106334;1269;1003211;-50
2023/03/18 03:54:46;;;;;;;30.30;19.10;;;;;;;8.95;69.74;102118.72;106960;1272;25302;-51
2023/03/18 03:57:16;;;;;;;31.30;18.50;;;;;;;8.94;69.78;102118.38;107030;1268;22636;-51
2023/03/18 03:59:46;;;;;;;30.70;19.10;;;;;;;8.95;69.76;102116.13;106738;1274;25332;-51
2023/03/18 04:02:23;;;;;;;34.80;19.70;;;;;;;8.97;69.87;102117.70;107021;1268;25401;-51
2023/03/18 04:04:52;;;;;;;29.10;17.50;;;;;;;8.98;69.72;102116.50;106193;1268;1003290;-50
2023/03/18 04:07:30;;;;;;;29.20;18.60;;;;;;;8.99;69.76;102123.42;106098;1268;1003005;-50
2023/03/18 04:09:59;;;;;;;32.80;20.40;;;;;;;9.01;69.84;102122.73;106952;1268;25346;-50
2023/03/18 04:12:28;;;;;;;33.40;20.90;;;;;;;9.02;69.80;102121.89;106806;1274;25339;-51
2023/03/18 04:14:59;;;;;;;30.70;19.70;;;;;;;9.03;69.90;102120.52;107051;1268;24197;-51
2023/03/18 04:17:28;;;;;;;35.40;20.70;;;;;;;9.03;69.88;102125.54;106860;1269;25353;-50
2023/03/18 04:19:57;;;;;;;30.10;20.20;;;;;;;9.04;69.92;102123.98;106943;1270;25405;-50
2023/03/18 04:22:30;;;;;;;34.10;20.60;;;;;;;9.05;69.94;102126.94;106851;1268;22525;-50
2023/03/18 04:25:01;;;;;;;29.70;20.20;;;;;;;9.05;70.10;102126.41;107055;1268;23125;-50
2023/03/18 04:27:29;;;;;;;31.30;20.50;;;;;;;9.07;70.06;102131.45;106952;1268;22646;-50
2023/03/18 04:30:00;;;;;;;33.20;20.80;;;;;;;9.09;70.01;102130.08;106981;1271;25360;-49
2023/03/18 04:32:35;;;;;;;36.10;21.80;;;;;;;9.10;69.97;102135.95;106797;1269;22544;-50
2023/03/18 04:35:08;;;;;;;32.20;20.40;;;;;;;9.11;69.89;102132.15;106872;1275;25330;-50
2023/03/18 04:37:37;;;;;;;35.30;21.40;;;;;;;9.12;70.07;102136.66;106686;1269;25416;-51
2023/03/18 04:40:07;;;;;;;32.30;23.00;;;;;;;9.12;69.99;102137.36;106327;1268;1003355;-50
2023/03/18 04:42:38;;;;;;;31.50;22.00;;;;;;;9.14;70.01;102144.64;106973;1273;25328;-51
2023/03/18 04:45:11;;;;;;;34.30;23.40;;;;;;;9.15;70.09;102142.90;107065;1268;25328;-50
2023/03/18 04:47:41;;;;;;;36.80;23.30;;;;;;;9.17;70.12;102139.11;107063;1271;23044;-50
2023/03/18 04:50:11;;;;;;;37.40;23.30;;;;;;;9.18;70.02;102139.46;106997;1268;24237;-51
2023/03/18 04:52:40;;;;;;;38.60;25.30;;;;;;;9.20;70.18;102143.64;106885;1254;22528;-50
2023/03/18 04:55:09;;;;;;;37.30;24.00;;;;;;;9.22;70.18;102145.55;106926;1271;24239;-50
2023/03/18 04:57:41;;;;;;;39.40;25.40;;;;;;;9.22;70.05;102147.13;106863;1269;25336;-49
2023/03/18 05:00:16;;;;;;;39.70;22.70;;;;;;;9.22;70.09;102150.74;106799;1270;25318;-50
2023/03/18 05:02:45;;;;;;;38.50;23.80;;;;;;;9.23;70.13;102154.57;106585;1275;24364;-50
2023/03/18 05:05:14;;;;;;;40.60;24.80;;;;;;;9.23;70.21;102154.57;106895;1272;26949;-50
2023/03/18 05:07:46;;;;;;;37.30;24.50;;;;;;;9.24;70.08;102156.65;106542;1271;22548;-50
2023/03/18 05:10:16;;;;;;;38.70;26.30;;;;;;;9.25;70.03;102159.26;106856;1270;22526;-50
2023/03/18 05:12:49;;;;;;;38.60;24.40;;;;;;;9.24;70.03;102162.20;106817;1270;25405;-50
2023/03/18 05:15:24;;;;;;;42.70;26.20;;;;;;;9.25;69.88;102164.45;106750;1276;25350;-49
2023/03/18 05:17:55;;;;;;;43.40;26.20;;;;;;;9.25;70.03;102168.09;106911;1275;24210;-49
2023/03/18 05:20:27;;;;;;;39.00;24.00;;;;;;;9.25;70.03;102167.06;106772;1276;25510;-50
2023/03/18 05:22:56;;;;;;;42.20;25.80;;;;;;;9.25;70.05;102170.00;106744;1272;24186;-49
2023/03/18 05:25:46;;;;;;;39.60;24.80;;;;;;;9.28;70.09;102168.27;106811;1272;25457;-49
2023/03/18 05:28:17;;;;;;;39.20;24.80;;;;;;;9.28;70.05;102173.13;106820;1270;22548;-50
2023/03/18 05:30:51;;;;;;;42.70;25.80;;;;;;;9.29;70.12;102172.09;107031;1269;25370;-50
2023/03/18 05:33:21;;;;;;;40.20;25.10;;;;;;;9.29;70.02;102173.14;106866;1269;22798;-49
2023/03/18 05:35:55;;;;;;;40.60;25.10;;;;;;;9.30;69.91;102172.79;106984;1271;22676;-49
2023/03/18 05:38:28;;;;;;;45.40;27.50;;;;;;;9.30;69.98;102173.48;107146;1269;25301;-49
2023/03/18 05:40:57;;;;;;;40.50;24.70;;;;;;;9.31;70.08;102174.36;106951;1268;25427;-50
2023/03/18 05:43:32;;;;;;;44.20;27.20;;;;;;;9.34;70.17;102180.26;106138;1270;1003158;-51
2023/03/18 05:46:01;;;;;;;42.80;27.40;;;;;;;9.36;70.06;102179.41;106886;1271;25339;-50
2023/03/18 05:48:46;;;;;;;45.10;27.30;;;;;;;9.37;69.95;102181.67;106938;1271;25332;-50
2023/03/18 05:51:16;;;;;;;44.60;25.90;;;;;;;9.39;69.91;102185.32;106994;1269;23899;-50
2023/03/18 05:53:46;;;;;;;39.10;25.40;;;;;;;9.39;69.72;102185.33;107041;1269;24198;-50
2023/03/18 05:56:21;;;;;;;43.60;24.20;;;;;;;9.40;69.73;102185.83;107135;1268;25367;-50
2023/03/18 05:58:51;;;;;;;40.70;24.40;;;;;;;9.40;69.69;102184.96;107051;1269;22595;-50
2023/03/18 06:01:32;;;;;;;40.10;24.90;;;;;;;9.42;69.77;102191.39;107066;1268;25364;-50
2023/03/18 06:04:01;;;;;;;36.50;23.90;;;;;;;9.45;69.76;102191.75;106913;1269;22537;-49
2023/03/18 06:06:31;;;;;;;41.00;24.40;;;;;;;9.49;69.60;102195.23;106833;1268;24352;-49
2023/03/18 06:09:03;;;;;;;38.30;23.40;;;;;;;9.51;69.35;102199.24;106909;1268;25415;-49
2023/03/18 06:11:32;;;;;;;36.80;23.40;;;;;;;9.51;69.37;102203.75;107012;1269;25801;-50
2023/03/18 06:14:03;;;;;;;36.80;22.50;;;;;;;9.53;69.28;102206.86;106809;1274;25449;-50
2023/03/18 06:16:40;;;;;;;37.00;22.50;;;;;;;9.56;69.21;102210.69;106956;1269;25356;-49
2023/03/18 06:19:10;;;;;;;37.20;22.10;;;;;;;9.56;69.09;102212.24;106869;1269;24282;-50
2023/03/18 06:21:39;;;;;;;29.20;20.60;;;;;;;9.56;69.17;102213.47;106723;1266;22524;-49
2023/03/18 06:24:08;;;;;;;31.30;21.20;;;;;;;9.57;69.23;102216.42;106977;1268;25338;-49
2023/03/18 06:26:39;;;;;;;28.60;19.30;;;;;;;9.58;69.17;102215.90;107014;1270;22648;-50
2023/03/18 06:29:07;;;;;;;28.30;19.30;;;;;;;9.59;69.14;102220.24;106770;1276;25256;-50
2023/03/18 06:31:36;;;;;;;26.20;17.60;;;;;;;9.59;69.11;102219.21;107053;1269;25433;-50
2023/03/18 06:34:14;;;;;;;32.10;19.10;;;;;;;9.60;69.16;102221.80;106944;1269;25355;-50
2023/03/18 06:36:43;;;;;;;28.70;18.70;;;;;;;9.59;69.13;102220.07;107083;1269;22551;-50
2023/03/18 06:39:15;;;;;;;26.90;18.40;;;;;;;9.58;69.13;102218.68;107098;1268;25346;-50
2023/03/18 06:41:47;;;;;;;32.10;20.20;;;;;;;9.58;69.22;102218.66;106074;1268;1002942;-50
2023/03/18 06:44:29;;;;;;;;;;;;;;;9.60;69.16;102221.98;107088;1253;25321;-49
2023/03/18 06:47:03;;;;;;;42.40;24.20;;;;;;;9.59;69.14;102217.30;107087;1269;23240;-50
2023/03/18 06:49:36;;;;;;;44.20;24.80;;;;;;;9.55;69.14;102222.30;107032;1268;23231;-50
2023/03/18 06:52:13;;;;;;;44.20;26.90;;;;;;;9.53;69.06;102223.85;106979;1268;24318;-50
2023/03/18 06:54:42;;;;;;;43.50;26.10;;;;;;;9.51;69.22;102219.85;106859;1272;25272;-50
2023/03/18 06:57:11;;;;;;;42.80;25.60;;;;;;;9.50;69.35;102226.08;106151;1270;1003160;-49
2023/03/18 06:59:41;;;;;;;43.40;26.00;;;;;;;9.49;69.42;102227.12;106990;1271;25336;-50
2023/03/18 07:02:10;;;;;;;43.00;25.80;;;;;;;9.50;69.48;102224.52;107025;1268;25482;-50
2023/03/18 07:04:39;;;;;;;47.90;29.00;;;;;;;9.53;69.46;102225.92;106959;1272;25352;-49
2023/03/18 07:07:09;;;;;;;41.10;26.00;;;;;;;9.51;69.36;102228.34;106238;1269;1003358;-49
2023/03/18 07:09:38;;;;;;;43.00;25.10;;;;;;;9.51;69.51;102229.55;106999;1269;25396;-50
2023/03/18 07:12:07;;;;;;;46.90;27.00;;;;;;;9.52;69.49;102227.65;106736;1271;386836;-49
2023/03/18 07:14:36;;;;;;;48.30;27.30;;;;;;;9.54;69.48;102228.18;107011;1269;22530;-49
2023/03/18 07:17:05;;;;;;;46.20;27.40;;;;;;;9.54;69.51;102230.79;106177;1268;1003047;-50
2023/03/18 07:19:41;;;;;;;42.20;25.40;;;;;;;9.54;69.55;102234.77;106609;1271;25526;-50
2023/03/18 07:22:10;;;;;;;44.70;25.20;;;;;;;9.56;69.59;102232.34;106690;1271;25370;-50
2023/03/18 07:24:39;;;;;;;46.10;25.90;;;;;;;9.57;69.52;102238.77;106719;1272;25325;-50
2023/03/18 07:27:08;;;;;;;45.90;26.20;;;;;;;9.58;69.46;102243.09;106722;1278;22529;-50
2023/03/18 07:29:38;;;;;;;47.10;26.80;;;;;;;9.58;69.46;102244.65;106802;1272;25450;-50
2023/03/18 07:32:07;;;;;;;47.30;27.10;;;;;;;9.60;69.57;102243.64;106776;1272;25360;-51
2023/03/18 07:34:35;;;;;;;45.50;26.90;;;;;;;9.62;69.51;102241.21;106702;1272;24312;-51
2023/03/18 07:37:04;;;;;;;55.50;27.30;;;;;;;9.60;69.51;102242.59;106761;1272;24371;-51
2023/03/18 07:39:37;;;;;;;42.90;26.70;;;;;;;9.60;69.46;102245.53;106762;1272;25828;-50
2023/03/18 07:42:08;;;;;;;52.30;28.20;;;;;;;9.60;69.59;102242.77;106768;1272;22532;-50
2023/03/18 07:44:36;;;;;;;49.80;28.00;;;;;;;9.61;69.38;102250.05;105996;1275;1005766;-50
2023/03/18 07:47:05;;;;;;;50.00;28.40;;;;;;;9.61;69.36;102251.79;105801;1271;1003147;-50
2023/03/18 07:49:34;;;;;;;49.00;27.30;;;;;;;9.59;69.29;102255.06;106528;1271;22844;-50
2023/03/18 07:52:03;;;;;;;45.40;26.80;;;;;;;9.60;69.35;102256.45;107056;1268;25432;-50
2023/03/18 07:54:33;;;;;;;50.10;28.40;;;;;;;9.61;69.54;102259.23;107060;1269;25367;-50
2023/03/18 07:57:02;;;;;;;58.00;27.10;;;;;;;9.63;69.53;102257.17;106334;1271;1002990;-50
2023/03/18 07:59:33;;;;;;;55.00;29.40;;;;;;;9.64;69.42;102260.81;107048;1271;25356;-50
2023/03/18 08:02:03;;;;;;;50.00;27.90;;;;;;;9.64;69.29;102264.96;107015;1269;25324;-50
2023/03/18 08:04:42;;;;;;;46.00;27.30;;;;;;;9.64;69.25;102266.52;107069;1271;23183;-50
2023/03/18 08:07:11;;;;;;;53.30;30.00;;;;;;;9.62;69.20;102267.21;106540;1269;22548;-50
2023/03/18 08:09:40;;;;;;;46.20;27.00;;;;;;;9.62;69.15;102269.98;106929;1275;25353;-50
2023/03/18 08:12:08;;;;;;;53.20;29.90;;;;;;;9.62;69.23;102275.17;107088;1269;25431;-51
2023/03/18 08:14:38;;;;;;;47.40;27.50;;;;;;;9.62;69.26;102274.31;106959;1275;25353;-50
2023/03/18 08:17:07;;;;;;;52.30;29.60;;;;;;;9.62;69.23;102278.64;106997;1270;25522;-50
2023/03/18 08:19:36;;;;;;;56.30;30.10;;;;;;;9.63;69.28;102275.36;107013;1268;23912;-50
2023/03/18 08:22:04;;;;;;;49.50;28.00;;;;;;;9.65;69.30;102280.56;107093;1271;25337;-49
2023/03/18 08:24:37;;;;;;;49.20;28.80;;;;;;;9.66;69.36;102280.77;106957;1269;25345;-50
2023/03/18 08:27:05;;;;;;;56.50;28.60;;;;;;;9.70;69.35;102283.56;106997;1269;24367;-50
2023/03/18 08:29:34;;;;;;;50.20;28.80;;;;;;;9.74;69.26;102285.99;107033;1270;24340;-50
2023/03/18 08:32:04;;;;;;;52.80;29.70;;;;;;;9.74;69.11;102286.17;107036;1270;25321;-50
2023/03/18 08:34:34;;;;;;;50.00;29.30;;;;;;;9.75;69.05;102286.17;106773;1275;24201;-50
2023/03/18 08:37:03;;;;;;;53.80;30.80;;;;;;;9.75;69.03;102286.00;106951;1272;22787;-50
2023/03/18 08:39:33;;;;;;;57.00;29.40;;;;;;;9.77;69.01;102285.14;107012;1269;25364;-50
2023/03/18 08:42:05;;;;;;;50.20;28.80;;;;;;;9.79;68.78;102287.06;106876;1275;25331;-50
2023/03/18 08:44:34;;;;;;;48.30;28.80;;;;;;;9.78;68.75;102284.29;106995;1269;22520;-50
2023/03/18 08:47:02;;;;;;;54.80;30.50;;;;;;;9.79;68.75;102293.14;107005;1268;25415;-50
2023/03/18 08:49:31;;;;;;;49.30;28.40;;;;;;;9.78;68.65;102290.00;107165;1271;25357;-50
2023/03/18 08:51:59;;;;;;;50.40;28.10;;;;;;;9.78;68.72;102289.48;106837;1271;25402;-50
2023/03/18 08:54:28;;;;;;;50.40;28.10;;;;;;;9.79;68.75;102291.23;106710;1273;24242;-49
2023/03/18 08:57:00;;;;;;;49.90;27.50;;;;;;;9.79;68.70;102291.75;107000;1271;25356;-50
2023/03/18 08:59:30;;;;;;;47.50;28.30;;;;;;;9.80;68.64;102290.38;106311;1268;1003475;-50
2023/03/18 09:01:59;;;;;;;53.70;29.40;;;;;;;9.83;68.56;102292.98;107008;1271;26508;-49
2023/03/18 09:04:28;;;;;;;51.50;28.40;;;;;;;9.84;68.55;102293.69;107067;1268;25459;-50
2023/03/18 09:06:56;;;;;;;50.60;31.70;;;;;;;9.88;68.56;102294.05;106980;1272;24249;-49
2023/03/18 09:09:30;;;;;;;51.20;29.00;;;;;;;9.90;68.35;102298.57;106550;1269;22643;-50
2023/03/18 09:12:12;;;;;;;46.50;29.00;;;;;;;9.92;68.40;102303.43;107042;1268;25414;-49
2023/03/18 09:14:42;;;;;;;49.90;28.80;;;;;;;9.94;68.27;102301.36;107374;1267;22503;-50
2023/03/18 09:17:12;;;;;;;56.00;31.10;;;;;;;9.94;68.23;102297.90;106996;1269;22543;-50
2023/03/18 09:19:40;;;;;;;55.80;31.30;;;;;;;9.93;68.11;102303.43;106749;1275;22635;-49
2023/03/18 09:22:13;;;;;;;51.40;30.30;;;;;;;9.90;68.19;102305.16;106333;1267;1002891;-50
2023/03/18 09:24:43;;;;;;;50.70;28.60;;;;;;;9.89;68.10;102303.93;107055;1269;25296;-50
2023/03/18 09:27:12;;;;;;;59.80;31.00;;;;;;;9.88;68.07;102308.79;107097;1270;25357;-50
2023/03/18 09:29:40;;;;;;;55.20;31.70;;;;;;;9.87;68.20;102311.02;107376;1269;22525;-50
2023/03/18 09:32:10;;;;;;;52.80;30.00;;;;;;;9.87;68.31;102311.73;107354;1270;25335;-50
2023/03/18 09:34:38;;;;;;;53.80;31.00;;;;;;;9.87;68.26;102313.80;106575;1270;1002813;-50
2023/03/18 09:37:07;;;;;;;56.20;31.10;;;;;;;9.86;68.26;102311.38;107046;1269;25367;-50
2023/03/18 09:39:36;;;;;;;52.00;30.80;;;;;;;9.88;68.22;102311.89;106658;1269;25395;-50
2023/03/18 09:42:20;;;;;;;49.10;29.30;;;;;;;9.96;67.90;102308.14;107355;1269;22534;-50
2023/03/18 09:44:53;;;;;;;54.60;30.80;;;;;;;10.01;67.69;102311.98;107277;1270;24355;-50
2023/03/18 09:47:55;;;;;;;48.30;30.20;;;;;;;10.03;67.64;102310.41;107116;1268;25419;-50
2023/03/18 09:50:32;;;;;;;52.80;30.40;;;;;;;9.93;67.96;102307.60;106978;1262;22734;-49
2023/03/18 09:53:04;;;;;;;43.20;27.90;;;;;;;9.93;67.92;102305.52;107040;1272;25581;-49
2023/03/18 09:55:39;;;;;;;52.00;29.90;;;;;;;9.92;67.95;102306.90;106921;1272;25498;-50
2023/03/18 09:58:31;;;;;;;50.80;30.70;;;;;;;9.94;67.91;102304.14;106628;1275;24090;-50
2023/03/18 10:01:00;;;;;;;51.50;30.70;;;;;;;9.95;67.79;102296.70;106648;1273;22528;-50
2023/03/18 10:03:32;;;;;;;48.30;28.90;;;;;;;10.00;67.77;102296.89;107024;1274;22524;-49
2023/03/18 10:06:22;;;;;;;54.60;33.50;;;;;;;9.99;67.65;102294.45;106770;1269;22531;-49
2023/03/18 10:09:01;;;;;;;53.00;31.80;;;;;;;10.01;67.60;102297.23;106830;1272;22527;-50
2023/03/18 10:11:41;;;;;;;49.20;30.10;;;;;;;10.02;67.41;102294.64;106959;1268;24357;-50
2023/03/18 10:14:49;;;;;;;51.30;31.00;;;;;;;10.04;67.37;102296.73;107150;1269;22527;-50
2023/03/18 10:17:21;;;;;;;48.90;30.10;;;;;;;10.06;67.22;102294.66;107088;1268;23493;-49
2023/03/18 10:19:53;;;;;;;48.10;30.20;;;;;;;10.06;67.10;102291.02;106244;1273;1003460;-49
2023/03/18 10:22:56;;;;;;;45.60;28.60;;;;;;;10.06;66.90;102286.17;107159;1267;22638;-49
2023/03/18 10:25:37;;;;;;;47.90;30.60;;;;;;;10.07;66.86;102283.58;106363;1272;1002596;-49
2023/03/18 10:28:34;;;;;;;50.40;30.90;;;;;;;10.08;66.84;102285.30;106437;1270;1003281;-49
2023/03/18 10:31:07;;;;;;;;;;;;;;;10.09;66.77;102285.84;107701;1266;25324;-49
2023/03/18 10:33:50;;;;;;;44.40;29.60;;;;;;;10.12;66.87;102284.15;107293;1268;22526;-49
2023/03/18 10:36:42;;;;;;;50.40;30.10;;;;;;;10.14;66.52;102281.56;106987;1272;25391;-49
2023/03/18 10:39:15;;;;;;;51.00;31.20;;;;;;;10.18;66.53;102281.05;106996;1275;25328;-49
2023/03/18 10:41:48;;;;;;;46.30;30.20;;;;;;;10.23;66.49;102278.65;106986;1272;22533;-49
2023/03/18 10:44:29;;;;;;;56.40;32.70;;;;;;;10.30;66.26;102277.11;107572;1266;24264;-50
2023/03/18 10:47:00;;;;;;;51.60;31.80;;;;;;;10.35;66.02;102272.62;106832;1268;22556;-49
2023/03/18 10:49:33;;;;;;;47.60;31.50;;;;;;;10.38;65.84;102269.34;106850;1269;23343;-49
2023/03/18 10:52:21;;;;;;;;;;;;;;;10.42;65.66;102271.59;107000;1275;22572;-49
2023/03/18 10:54:51;;;;;;;48.40;31.40;;;;;;;10.48;65.57;102267.11;107151;1268;23914;-49
2023/03/18 10:57:21;;;;;;;41.60;29.70;;;;;;;10.53;65.46;102269.90;107066;1268;25378;-48
2023/03/18 10:59:51;;;;;;;47.00;32.80;;;;;;;10.61;65.15;102268.36;106945;1273;25414;-48
2023/03/18 11:02:32;;;;;;;50.00;29.40;;;;;;;10.68;64.91;102267.49;106749;1275;25424;-49
2023/03/18 11:05:19;;;;;;;45.80;30.60;;;;;;;10.75;64.56;102265.95;106649;1268;25287;-49
2023/03/18 11:08:15;;;;;;;42.80;29.70;;;;;;;10.82;64.55;102265.61;106447;1267;25328;-48
2023/03/18 11:10:47;;;;;;;46.40;30.10;;;;;;;10.89;64.05;102267.69;106382;1273;22777;-48
2023/03/18 11:13:21;;;;;;;48.80;31.90;;;;;;;10.93;63.45;102266.48;106380;1279;25359;-49
2023/03/18 11:15:50;;;;;;;44.50;30.50;;;;;;;10.93;63.14;102268.40;106638;1273;22537;-48
2023/03/18 11:18:23;;;;;;;39.30;28.90;;;;;;;10.93;63.04;102264.75;106338;1273;22738;-49
2023/03/18 11:20:59;;;;;;;45.10;29.20;;;;;;;10.95;63.08;102264.92;106372;1276;24231;-48
2023/03/18 11:26:53;;;;;;;40.50;28.20;;;;;;;11.11;62.96;102262.16;105958;1286;25474;-49
2023/03/18 11:29:27;;;;;;;37.00;27.90;;;;;;;11.17;62.66;102262.15;105874;1285;24297;-48
2023/03/18 11:31:57;;;;;;;39.30;28.40;;;;;;;11.23;62.47;102260.94;106131;1281;22634;-48
2023/03/18 11:34:32;;;;;;;41.40;26.50;;;;;;;11.30;62.31;102259.88;106607;1273;24310;-48